EDMA/AGB METAR and TAF weather

Enter ICAO airport designator
Station Type Date Time Source
EDMA METAR 2021/05/14 13:20 UTC NOAA

EDMA 141320Z 29007KT 9999 SCT051TCU 16/05 Q1008


Station Type Date Time Source
EDMA Decoded METAR 2021/05/14 13:20 UTC NOAA

Augsburg, Germany (EDMA) 48-26N 010-56E 463M
May 14, 2021 - 09:20 AM EDT / 2021.05.14 1320 UTC
Wind: from the WNW (290 degrees) at 8 MPH (7 KT):0
Visibility: greater than 7 mile(s):0
Sky conditions: partly cloudy
Weather: Towering cumulus clouds observed
Temperature: 60 F (16 C)
Dew Point: 41 F (5 C)
Relative Humidity: 47%
Pressure (altimeter): 29.77 in. Hg (1008 hPa)
ob: EDMA 141320Z 29007KT 9999 SCT051TCU 16/05 Q1008
cycle: 13

Station Type Date Time Source
EDMA TAF 2010/02/22 13:50 UTC NOAA

METAR EDMA 221350Z 23006KT CAVOK 10/02 Q0996

Example: see airport list